Terminal Aerodrome Forecast
Issued by NWS

Home | Current Version | Previous Version | Text Only | Print | Product List | Glossary On
Versions: 1 2 3 4 5 6 7 8 9 10 11 12 13 14 15 16 17
000
FTUS44 KEPZ 230524
TAFLRU
TAF
KLRU 230524Z 2306/2406 11008KT P6SM FEW050 SCT110 BKN250
     FM231200 06005KT P6SM FEW040 SCT070 BKN140
     FM232100 12008KT P6SM VCTS SCT070CB BKN120
     FM240300 07005KT P6SM VCSH SCT050 BKN100 OVC150=

USA.gov is the U.S. government's official web portal to all federal, state and local government web resources and services.